Vremea acum in Abrud - Romania

Vrei sa afli care e starea vremii acum in Alba - Romania? Dorim sa iti furnizam starea vremii pentru Alba - Romania. Starea vremii Alba - Romania pentru astazi.

Vremea acum in Abrud

Temperatura: 11 °C

Se simte ca: 10.4 °C
Innorat: 100 %
Precipitatii: 47 %
Presiune atmosferica: 1023 hPa
Umiditate: 94%
Vizibilitate: 6 km
Vantul bate din W cu 6.8 km/h

Evolutia vremii in Abrud pe ore

Ora: 22:00
Tunete în apropiere
Temperatura: 6.9°C
Sansa de precipitatii: 47%
Ora Descriere Temp Se simte Precipitatii Umiditate Vant
00:00Ceață densă2.5°2.2°87%97%ENE 5.4 KM/H
01:00Ceață densă3.3°74%98%ENE 5.4 KM/H
02:00Ceață densă5.5°4.5°62%98%ENE 5.4 KM/H
03:00Ceață5.1°4.2°41%97%ENE 5 KM/H
04:00Ceață densă4.6°3.9°21%97%ENE 4.3 KM/H
05:00Ceață4.2°3.6°0%96%ENE 4 KM/H
06:00Parțial noros4.5°4.1°0%94%ENE 3.6 KM/H
07:00Ceață4.8°4.6°0%92%ENE 2.9 KM/H
08:00Parțial noros5.1°5.1°0%89%ENE 2.5 KM/H
09:00Parțial noros7.1°7.1°0%82%E 2.2 KM/H
10:00Parțial noros9.2°9.2°0%75%SE 2.2 KM/H
11:00Parțial noros11.2°11.2°0%67%SSE 1.8 KM/H
12:00Parțial noros11.2°11.2°0%67%S 2.2 KM/H
13:00Parțial noros11.2°11.2°0%68%SSW 2.2 KM/H
14:00Parțial noros11.2°11.2°0%68%WSW 2.5 KM/H
15:00Burniță uşoară pe porțiuni10.4°10.4°29%73%W 2.2 KM/H
16:00Parțial noros9.5°9.5°57%77%WNW 1.4 KM/H
17:00Burniță uşoară pe porțiuni8.7°8.7°86%82%NW 1.1 KM/H
18:00Tunete în apropiere8.3°8.3°57%84%SW 1.8 KM/H
19:00Burniță uşoară pe porțiuni7.8°7.9°29%87%ESE 2.5 KM/H
20:00Tunete în apropiere7.4°7.5°0%89%N 3.2 KM/H
21:00Burniță uşoară pe porțiuni7.1°7.2°23%90%SE 2.9 KM/H
22:00Tunete în apropiere6.9°6.9°47%91%WSW 2.5 KM/H
23:00Burniță uşoară pe porțiuni6.6°6.6°70%93%N 2.2 KM/H